Time;durP1;ratioP1;P1;durP2;ratioP2;P2;SDS_P1;SDS_P2;PMS_P1;PMS_P2;Temp;Humidity;BMP_temperature;BMP_pressure;BME280_temperature;BME280_humidity;BME280_pressure;Samples;Min_cycle;Max_cycle;Signal;HPM_P1;HPM_P2
2022/04/16 00:00:55;;;;;;;0.40;0.30;;;;;;;4.47;88.10;102654.31;5053085;28;21022;-73
2022/04/16 00:03:22;;;;;;;0.40;0.30;;;;;;;4.55;89.09;102655.91;5052059;28;20486;-73
2022/04/16 00:05:50;;;;;;;0.40;0.30;;;;;;;4.50;88.87;102653.84;5052900;28;20541;-72
2022/04/16 00:08:18;;;;;;;0.40;0.30;;;;;;;4.49;88.36;102656.75;5052962;28;20968;-71
2022/04/16 00:10:45;;;;;;;0.40;0.30;;;;;;;4.48;89.11;102655.13;5052501;28;20466;-72
2022/04/16 00:13:11;;;;;;;0.40;0.30;;;;;;;4.52;87.98;102651.00;5052058;28;20473;-72
2022/04/16 00:15:38;;;;;;;0.40;0.30;;;;;;;4.46;88.96;102651.81;5053698;28;20466;-72
2022/04/16 00:18:05;;;;;;;0.40;0.30;;;;;;;4.42;89.33;102646.03;5050554;28;20968;-71
2022/04/16 00:20:33;;;;;;;0.40;0.30;;;;;;;4.48;88.58;102650.56;5051327;28;20936;-73
2022/04/16 00:22:59;;;;;;;0.40;0.30;;;;;;;4.41;88.35;102649.75;5051745;28;20481;-71
2022/04/16 00:25:28;;;;;;;0.40;0.30;;;;;;;4.41;88.50;102652.44;5052785;28;20458;-72
2022/04/16 00:27:55;;;;;;;0.40;0.30;;;;;;;4.41;88.34;102651.63;5053531;28;20455;-71
2022/04/16 00:30:22;;;;;;;0.40;0.30;;;;;;;4.26;88.82;102663.41;5051892;28;20551;-71
2022/04/16 00:32:51;;;;;;;0.40;0.30;;;;;;;4.29;89.80;102657.63;5054407;28;20435;-72
2022/04/16 00:35:20;;;;;;;0.40;0.30;;;;;;;4.30;89.07;102663.81;5052172;28;20464;-73
2022/04/16 00:37:47;;;;;;;0.40;0.30;;;;;;;4.14;89.18;102670.41;5053634;28;20449;-72
2022/04/16 00:40:14;;;;;;;0.40;0.30;;;;;;;4.08;89.33;102668.56;5052892;28;20478;-72
2022/04/16 00:42:44;;;;;;;0.40;0.30;;;;;;;4.08;90.56;102670.41;5051795;28;20890;-71
2022/04/16 00:45:11;;;;;;;0.40;0.30;;;;;;;4.10;91.04;102665.66;5052465;28;20466;-72
2022/04/16 00:47:38;;;;;;;0.40;0.30;;;;;;;4.00;90.85;102674.13;5052612;28;20474;-73
2022/04/16 00:50:05;;;;;;;0.40;0.30;;;;;;;4.01;92.16;102667.72;5034145;28;20840;-73
2022/04/16 00:52:32;;;;;;;0.40;0.30;;;;;;;4.04;91.38;102664.63;5050618;28;20462;-73
2022/04/16 00:54:58;;;;;;;0.40;0.30;;;;;;;3.93;90.90;102659.88;5052409;28;20465;-72
2022/04/16 00:57:25;;;;;;;0.40;0.30;;;;;;;3.81;91.78;102659.69;5052992;28;20485;-72
2022/04/16 00:59:53;;;;;;;0.40;0.30;;;;;;;3.73;93.27;102663.38;5052691;28;20481;-72
2022/04/16 01:02:20;;;;;;;0.40;0.30;;;;;;;3.71;93.01;102665.41;5050649;28;20482;-73
2022/04/16 01:04:47;;;;;;;0.40;0.30;;;;;;;3.79;93.33;102665.22;5051122;28;20515;-71
2022/04/16 01:07:13;;;;;;;0.40;0.30;;;;;;;3.78;93.46;102666.25;5051774;28;20462;-72
2022/04/16 01:09:40;;;;;;;0.40;0.30;;;;;;;3.73;93.55;102671.41;5051463;28;20465;-71
2022/04/16 01:12:08;;;;;;;0.40;0.30;;;;;;;3.74;94.48;102669.53;5051364;28;20468;-71
2022/04/16 01:14:34;;;;;;;0.40;0.30;;;;;;;3.68;94.41;102676.56;5051292;28;20462;-71
2022/04/16 01:17:02;;;;;;;0.40;0.30;;;;;;;3.61;94.24;102677.56;5053420;28;20438;-71
2022/04/16 01:19:28;;;;;;;0.40;0.30;;;;;;;3.59;93.83;102677.78;5050458;28;20462;-71
2022/04/16 01:21:55;;;;;;;1.40;1.33;;;;;;;3.53;94.63;102679.38;5049613;28;20808;-71
2022/04/16 01:24:22;;;;;;;0.40;0.30;;;;;;;3.42;94.41;102676.50;5049628;28;20454;-71
2022/04/16 01:26:51;;;;;;;0.40;0.30;;;;;;;3.41;94.33;102681.03;5052295;28;20462;-71
2022/04/16 01:29:18;;;;;;;0.40;0.30;;;;;;;3.33;94.93;102683.88;5050425;28;20457;-72
2022/04/16 01:31:45;;;;;;;0.40;0.30;;;;;;;3.28;95.95;102683.66;5053214;28;20462;-71
2022/04/16 01:34:14;;;;;;;0.40;0.30;;;;;;;3.36;95.69;102682.63;5048809;28;20549;-71
2022/04/16 01:36:40;;;;;;;0.40;0.30;;;;;;;3.40;94.87;102687.38;5052414;28;20462;-72
2022/04/16 01:39:07;;;;;;;0.40;0.30;;;;;;;3.23;94.78;102684.25;5048926;28;20458;-71
2022/04/16 01:41:35;;;;;;;0.40;0.30;;;;;;;3.22;96.42;102687.13;5051788;28;20863;-72
2022/04/16 01:44:01;;;;;;;0.40;0.30;;;;;;;3.26;96.55;102683.00;5051959;28;20639;-71
2022/04/16 01:46:29;;;;;;;0.40;0.30;;;;;;;3.29;95.59;102679.94;5049738;28;20841;-71
2022/04/16 01:48:55;;;;;;;0.40;0.30;;;;;;;3.25;95.57;102684.03;5050185;28;20537;-71
2022/04/16 01:51:22;;;;;;;0.40;0.30;;;;;;;3.23;95.50;102676.22;5051191;28;20482;-71
2022/04/16 01:53:49;;;;;;;0.40;0.30;;;;;;;3.23;96.05;102678.91;5050582;28;20450;-71
2022/04/16 01:56:15;;;;;;;0.40;0.30;;;;;;;3.13;97.33;102681.09;5050716;28;20979;-71
2022/04/16 01:58:44;;;;;;;0.40;0.30;;;;;;;3.14;97.90;102680.06;5051170;28;20458;-75
2022/04/16 02:01:10;;;;;;;0.40;0.30;;;;;;;3.12;97.98;102681.31;5051813;28;20543;-74
2022/04/16 02:03:37;;;;;;;0.40;0.30;;;;;;;3.21;97.23;102672.91;5049285;28;20482;-74
2022/04/16 02:06:04;;;;;;;0.40;0.30;;;;;;;3.14;98.13;102676.56;5050073;28;20462;-74
2022/04/16 02:08:31;;;;;;;0.40;0.30;;;;;;;3.04;98.11;102671.59;5052382;28;20469;-74
2022/04/16 02:10:57;;;;;;;0.40;0.30;;;;;;;3.17;97.32;102679.69;5048871;28;20470;-74
2022/04/16 02:13:24;;;;;;;0.40;0.30;;;;;;;3.18;97.70;102680.50;5052647;28;20825;-74
2022/04/16 02:15:52;;;;;;;0.40;0.30;;;;;;;3.16;97.91;102682.56;5050698;28;20859;-74
2022/04/16 02:18:19;;;;;;;0.40;0.30;;;;;;;3.17;98.07;102690.38;5049742;28;20488;-74
2022/04/16 02:20:45;;;;;;;0.40;0.30;;;;;;;3.17;97.87;102698.41;5051191;28;20513;-73
2022/04/16 02:23:12;;;;;;;0.40;0.30;;;;;;;3.12;98.15;102703.56;5052780;28;20485;-74
2022/04/16 02:25:43;;;;;;;0.40;0.30;;;;;;;3.21;98.02;102702.34;5049845;28;20975;-74
2022/04/16 02:28:09;;;;;;;0.40;0.30;;;;;;;3.26;98.03;102718.66;5052277;28;20838;-74
2022/04/16 02:30:37;;;;;;;0.40;0.30;;;;;;;3.27;97.76;102712.25;5054927;28;20843;-73
2022/04/16 02:33:06;;;;;;;0.40;0.30;;;;;;;3.23;97.56;102713.72;5044148;28;20536;-74
2022/04/16 02:35:34;;;;;;;0.40;0.30;;;;;;;3.16;97.19;102712.84;5042848;28;20488;-74
2022/04/16 02:38:01;;;;;;;0.40;0.30;;;;;;;3.16;97.20;102710.16;5055250;28;20472;-73
2022/04/16 02:40:28;;;;;;;0.40;0.30;;;;;;;3.04;97.52;102715.25;5055427;28;20597;-72
2022/04/16 02:42:54;;;;;;;0.40;0.30;;;;;;;2.98;97.83;102707.19;5053324;28;20576;-73
2022/04/16 02:48:07;;;;;;;0.40;0.30;;;;;;;3.02;96.93;102713.81;5048796;28;20504;-72
2022/04/16 02:50:34;;;;;;;0.40;0.30;;;;;;;2.98;97.41;102715.22;5051434;28;20501;-71
2022/04/16 02:53:00;;;;;;;0.40;0.30;;;;;;;2.94;97.78;102716.63;5054792;28;20458;-72
2022/04/16 02:55:28;;;;;;;0.40;0.30;;;;;;;2.86;98.09;102722.16;5053733;28;20462;-72
2022/04/16 02:57:54;;;;;;;0.40;0.30;;;;;;;2.75;98.91;102729.72;5052872;28;20458;-71
2022/04/16 03:00:22;;;;;;;0.40;0.30;;;;;;;2.78;99.18;102723.94;5054722;28;20494;-72
2022/04/16 03:02:48;;;;;;;0.40;0.30;;;;;;;2.81;99.43;102737.97;5052737;28;20489;-73
2022/04/16 03:05:16;;;;;;;0.40;0.30;;;;;;;2.77;98.90;102741.03;5054932;28;20454;-72
2022/04/16 03:07:43;;;;;;;0.40;0.30;;;;;;;2.85;99.34;102739.22;5052379;28;20454;-74
2022/04/16 03:10:11;;;;;;;0.40;0.30;;;;;;;2.94;98.51;102743.41;5048638;28;20481;-71
2022/04/16 03:12:44;;;;;;;0.40;0.30;;;;;;;2.92;98.25;102742.75;5052859;28;20466;-72
2022/04/16 03:17:56;;;;;;;0.40;0.30;;;;;;;3.08;97.96;102750.47;5052042;28;20454;-72
2022/04/16 03:20:25;;;;;;;0.40;0.30;;;;;;;3.10;98.63;102753.81;5044060;28;20474;-71
2022/04/16 03:22:51;;;;;;;0.40;0.30;;;;;;;3.15;99.13;102762.06;5054672;28;20486;-72
2022/04/16 03:25:18;;;;;;;0.40;0.30;;;;;;;3.16;98.85;102755.69;5053335;28;20458;-71
2022/04/16 03:27:45;;;;;;;0.40;0.30;;;;;;;3.11;99.26;102760.81;5054925;28;21025;-71
2022/04/16 03:30:12;;;;;;;0.40;0.30;;;;;;;3.06;98.97;102760.56;5053038;28;20856;-72
2022/04/16 03:32:39;;;;;;;0.40;0.30;;;;;;;3.10;100.00;102774.38;5054617;28;20462;-67
2022/04/16 03:35:07;;;;;;;0.40;0.30;;;;;;;3.13;100.00;102771.31;5053617;28;20508;-72
2022/04/16 03:37:36;;;;;;;0.40;0.30;;;;;;;3.18;99.78;102774.22;5054884;28;20496;-73
2022/04/16 03:40:02;;;;;;;0.40;0.30;;;;;;;3.21;99.53;102781.88;5051931;28;20478;-72
2022/04/16 03:42:29;;;;;;;0.40;0.30;;;;;;;3.29;99.74;102785.22;5052944;28;20990;-71
2022/04/16 03:44:56;;;;;;;0.40;0.30;;;;;;;3.20;98.94;102785.56;5051024;28;20486;-72
2022/04/16 03:47:23;;;;;;;0.40;0.30;;;;;;;3.23;99.56;102780.66;5054388;28;20462;-72
2022/04/16 03:49:49;;;;;;;0.40;0.30;;;;;;;3.20;99.71;102774.88;5054207;28;20853;-73
2022/04/16 03:52:16;;;;;;;0.40;0.30;;;;;;;3.28;98.83;102772.84;5053356;28;21012;-73
2022/04/16 04:00:12;;;;;;;0.40;0.30;;;;;;;3.31;98.12;102785.00;5052587;28;20966;-72
2022/04/16 04:02:39;;;;;;;0.40;0.30;;;;;;;3.26;96.98;102782.09;5054122;28;20466;-72
2022/04/16 04:05:07;;;;;;;0.40;0.30;;;;;;;3.28;97.39;102791.59;5054066;28;20548;-72
2022/04/16 04:07:33;;;;;;;0.40;0.30;;;;;;;3.27;98.37;102797.13;5052365;28;20446;-71
2022/04/16 04:10:01;;;;;;;0.40;0.30;;;;;;;3.32;98.64;102796.53;5053380;28;20497;-72
2022/04/16 04:12:28;;;;;;;0.40;0.30;;;;;;;3.37;98.08;102800.31;5053766;28;20465;-72
2022/04/16 04:14:54;;;;;;;0.40;0.30;;;;;;;3.39;97.81;102811.63;5052889;28;20497;-72
2022/04/16 04:17:21;;;;;;;0.40;0.30;;;;;;;3.35;98.80;102812.22;5052412;28;20461;-72
2022/04/16 04:19:48;;;;;;;0.40;0.30;;;;;;;3.39;98.60;102817.00;5053731;28;20481;-72
2022/04/16 04:22:16;;;;;;;0.40;0.30;;;;;;;3.29;97.12;102822.72;5052170;28;20469;-71
2022/04/16 04:24:43;;;;;;;0.40;0.30;;;;;;;3.32;97.08;102826.00;5052976;28;21008;-72
2022/04/16 04:27:11;;;;;;;0.40;0.30;;;;;;;3.23;99.23;102822.66;5052339;28;20458;-72
2022/04/16 04:29:38;;;;;;;0.40;0.30;;;;;;;3.22;99.57;102837.06;5049530;28;20462;-71
2022/04/16 04:32:06;;;;;;;0.40;0.30;;;;;;;3.25;99.22;102834.00;5051192;28;20466;-72
2022/04/16 04:34:32;;;;;;;0.40;0.30;;;;;;;3.26;99.54;102833.81;5052153;28;20821;-72
2022/04/16 04:36:59;;;;;;;0.40;0.30;;;;;;;3.34;99.40;102827.47;5053498;28;20466;-72
2022/04/16 04:39:25;;;;;;;0.40;0.30;;;;;;;3.46;99.62;102835.78;5051941;28;20466;-72
2022/04/16 04:41:52;;;;;;;0.40;0.30;;;;;;;3.46;98.86;102833.94;5053588;28;20460;-73
2022/04/16 04:44:19;;;;;;;0.40;0.30;;;;;;;3.43;98.77;102842.34;5051401;28;20482;-73
2022/04/16 04:46:46;;;;;;;0.40;0.30;;;;;;;3.44;99.31;102844.00;5053236;28;20465;-72
2022/04/16 04:49:12;;;;;;;0.40;0.30;;;;;;;3.47;98.65;102848.16;5053603;28;20469;-73
2022/04/16 04:51:39;;;;;;;0.40;0.30;;;;;;;3.49;98.67;102851.44;5051378;28;20991;-73
2022/04/16 04:54:06;;;;;;;0.40;0.30;;;;;;;3.53;98.55;102845.50;5053453;28;20454;-74
2022/04/16 04:56:33;;;;;;;0.40;0.30;;;;;;;3.53;98.14;102847.34;5049589;28;20481;-72
2022/04/16 04:58:59;;;;;;;0.40;0.30;;;;;;;3.51;97.23;102852.09;5053069;28;21025;-72
2022/04/16 05:01:27;;;;;;;0.40;0.30;;;;;;;3.57;97.37;102853.97;5050671;28;20544;-73
2022/04/16 05:03:54;;;;;;;0.40;0.30;;;;;;;3.62;97.24;102843.47;5049110;28;20506;-73
2022/04/16 05:06:20;;;;;;;0.40;0.30;;;;;;;3.64;96.92;102846.81;5052111;28;20983;-72
2022/04/16 05:08:47;;;;;;;0.40;0.30;;;;;;;3.69;97.32;102855.06;5051250;28;20481;-73
2022/04/16 05:11:13;;;;;;;0.40;0.30;;;;;;;3.77;97.13;102854.09;5053083;28;20536;-73
2022/04/16 05:13:40;;;;;;;0.40;0.30;;;;;;;3.77;96.37;102862.94;5049949;28;20708;-72
2022/04/16 05:16:07;;;;;;;0.40;0.30;;;;;;;3.80;96.04;102862.53;5051221;28;20465;-73
2022/04/16 05:18:35;;;;;;;0.40;0.30;;;;;;;3.86;96.71;102868.16;5051037;28;20462;-73
2022/04/16 05:21:01;;;;;;;0.40;0.30;;;;;;;3.90;95.15;102872.09;5052752;28;20512;-75
2022/04/16 05:23:27;;;;;;;0.40;0.30;;;;;;;3.92;95.32;102878.88;5049674;28;20466;-68
2022/04/16 05:25:54;;;;;;;0.40;0.30;;;;;;;3.92;96.39;102880.75;5050756;28;21021;-73
2022/04/16 05:28:20;;;;;;;0.40;0.27;;;;;;;3.99;95.89;102882.44;5052201;28;20508;-71
2022/04/16 05:30:48;;;;;;;0.50;0.40;;;;;;;4.08;96.98;102882.25;5050193;28;21060;-70
2022/04/16 05:34:18;;;;;;;0.40;0.30;;;;;;;4.13;96.96;102887.84;5052209;28;20510;-71
2022/04/16 05:36:05;;;;;;;0.40;0.30;;;;;;;4.13;96.20;102891.34;5052083;28;20462;-69
2022/04/16 05:38:32;;;;;;;0.40;0.20;;;;;;;4.23;96.63;102893.66;5051977;28;20488;-70
2022/04/16 05:40:59;;;;;;;0.40;0.30;;;;;;;4.32;95.99;102905.84;5050659;28;20478;-69
2022/04/16 05:43:26;;;;;;;0.40;0.30;;;;;;;4.46;96.18;102907.53;5052109;28;20866;-70
2022/04/16 05:45:52;;;;;;;0.40;0.30;;;;;;;4.57;96.78;102900.75;5052324;28;20466;-72
2022/04/16 05:48:19;;;;;;;0.40;0.30;;;;;;;4.64;95.96;102911.50;5049444;28;21448;-72
2022/04/16 05:50:46;;;;;;;0.40;0.30;;;;;;;4.73;95.85;102911.09;5052069;28;20478;-72
2022/04/16 05:53:15;;;;;;;0.40;0.30;;;;;;;4.88;95.49;102913.63;5051582;28;20454;-73
2022/04/16 05:55:46;;;;;;;0.40;0.30;;;;;;;4.98;95.23;102913.19;5052057;28;20463;-72
2022/04/16 05:58:13;;;;;;;0.40;0.30;;;;;;;5.04;94.51;102912.38;5043760;28;20469;-71
2022/04/16 06:00:39;;;;;;;0.40;0.27;;;;;;;4.91;92.27;102917.72;5038637;28;20486;-72
2022/04/16 06:03:06;;;;;;;0.40;0.30;;;;;;;4.92;91.36;102917.53;5051154;28;20512;-70
2022/04/16 06:05:32;;;;;;;0.40;0.30;;;;;;;4.76;91.25;102917.94;5056436;28;20481;-71
2022/04/16 06:07:59;;;;;;;0.40;0.30;;;;;;;4.85;91.92;102919.38;5055990;28;20541;-76
2022/04/16 06:10:27;;;;;;;0.40;0.30;;;;;;;4.93;92.04;102915.69;5054533;28;20895;-75
2022/04/16 06:12:54;;;;;;;0.40;0.30;;;;;;;4.99;91.73;102917.53;5044364;28;20466;-76
2022/04/16 06:15:22;;;;;;;0.40;0.30;;;;;;;5.17;91.62;102915.06;5055958;28;20480;-72
2022/04/16 06:17:48;;;;;;;0.40;0.30;;;;;;;5.21;91.02;102912.78;5056079;28;20453;-75
2022/04/16 06:20:15;;;;;;;0.40;0.30;;;;;;;5.27;91.02;102910.09;5054166;28;20480;-76
2022/04/16 06:22:41;;;;;;;0.40;0.30;;;;;;;5.22;90.26;102915.28;5055941;28;20516;-76
2022/04/16 06:25:08;;;;;;;0.40;0.30;;;;;;;5.15;90.62;102913.63;5055326;28;20492;-76
2022/04/16 06:27:38;;;;;;;0.40;0.30;;;;;;;4.99;90.47;102914.84;5053271;28;20476;-76
2022/04/16 06:30:06;;;;;;;0.40;0.30;;;;;;;4.93;91.82;102913.81;5053562;28;21140;-75
2022/04/16 06:32:34;;;;;;;0.40;0.30;;;;;;;5.03;91.28;102916.09;5055421;28;20477;-76
2022/04/16 06:35:01;;;;;;;0.40;0.30;;;;;;;5.12;92.02;102919.41;5055020;28;20512;-75
2022/04/16 06:37:28;;;;;;;0.40;0.30;;;;;;;5.14;91.58;102922.72;5056705;28;20450;-75
2022/04/16 06:39:55;;;;;;;0.40;0.30;;;;;;;5.02;91.40;102926.00;5054805;28;20568;-76
2022/04/16 06:42:21;;;;;;;0.40;0.30;;;;;;;5.15;91.64;102916.31;5055702;28;20461;-74
2022/04/16 06:44:49;;;;;;;0.40;0.30;;;;;;;5.27;92.02;102928.91;5054387;28;20543;-75
2022/04/16 06:47:15;;;;;;;0.40;0.30;;;;;;;5.49;91.73;102926.84;5056544;28;20442;-76
2022/04/16 06:49:42;;;;;;;0.40;0.30;;;;;;;5.63;91.71;102927.63;5054167;28;20466;-75
2022/04/16 06:52:09;;;;;;;0.40;0.30;;;;;;;5.68;91.11;102940.44;5053930;28;20466;-75
2022/04/16 06:54:36;;;;;;;0.40;0.30;;;;;;;5.77;90.25;102928.44;5053289;28;20468;-76
2022/04/16 06:57:03;;;;;;;0.40;0.30;;;;;;;5.85;89.65;102940.81;5055723;28;20515;-76
2022/04/16 06:59:29;;;;;;;0.40;0.30;;;;;;;5.91;88.86;102940.78;5054214;28;20562;-76
2022/04/16 07:01:57;;;;;;;0.40;0.30;;;;;;;5.86;87.24;102934.41;5055155;28;20462;-75
2022/04/16 07:04:24;;;;;;;0.40;0.30;;;;;;;5.96;88.71;102948.25;5054634;28;20478;-75
2022/04/16 07:06:50;;;;;;;0.40;0.30;;;;;;;5.87;87.27;102944.13;5055337;28;20462;-75
2022/04/16 07:09:17;;;;;;;0.40;0.30;;;;;;;6.00;87.50;102941.41;5055600;28;20461;-74
2022/04/16 07:11:43;;;;;;;0.40;0.30;;;;;;;6.18;86.73;102941.56;5055221;28;20478;-74
2022/04/16 07:14:10;;;;;;;0.40;0.30;;;;;;;6.26;85.69;102941.31;5054078;28;20832;-71
2022/04/16 07:16:37;;;;;;;0.40;0.30;;;;;;;6.38;85.52;102943.34;5054794;28;20466;-75
2022/04/16 07:19:05;;;;;;;0.93;0.80;;;;;;;6.42;85.30;102939.16;5054652;28;20470;-74
2022/04/16 07:21:31;;;;;;;0.40;0.30;;;;;;;6.62;85.38;102934.50;5054253;28;20485;-75
2022/04/16 07:23:58;;;;;;;0.40;0.30;;;;;;;6.69;85.14;102943.38;5053335;28;22304;-76
2022/04/16 07:26:25;;;;;;;0.40;0.30;;;;;;;6.77;83.47;102945.81;5054490;28;20462;-74
2022/04/16 07:28:51;;;;;;;0.40;0.27;;;;;;;6.85;82.46;102946.59;5051729;28;20458;-74
2022/04/16 07:31:18;;;;;;;0.40;0.30;;;;;;;6.77;81.24;102945.81;5053099;28;20497;-75
2022/04/16 07:33:44;;;;;;;0.40;0.20;;;;;;;6.72;80.46;102942.09;5050029;28;20469;-74
2022/04/16 07:36:12;;;;;;;0.40;0.30;;;;;;;6.75;80.65;102947.91;5050428;28;20469;-70
2022/04/16 07:38:38;;;;;;;0.40;0.30;;;;;;;6.78;80.44;102950.16;5055600;28;20455;-79
2022/04/16 07:41:05;;;;;;;0.40;0.30;;;;;;;6.77;80.61;102953.91;5052668;28;20482;-73
2022/04/16 07:43:32;;;;;;;0.40;0.30;;;;;;;6.87;80.33;102945.34;5050730;28;20459;-75
2022/04/16 07:45:59;;;;;;;0.40;0.30;;;;;;;6.82;77.83;102954.06;5053398;28;20478;-76
2022/04/16 07:48:25;;;;;;;0.40;0.30;;;;;;;6.86;78.25;102964.41;5053225;28;20466;-76
2022/04/16 07:50:52;;;;;;;0.40;0.30;;;;;;;6.93;79.26;102959.81;5052877;28;20478;-73
2022/04/16 07:53:20;;;;;;;0.40;0.30;;;;;;;6.97;79.12;102959.16;5050322;28;20462;-73
2022/04/16 07:55:46;;;;;;;0.40;0.30;;;;;;;7.04;78.76;102956.41;5052081;28;21101;-73
2022/04/16 07:58:13;;;;;;;0.40;0.30;;;;;;;7.15;78.92;102961.09;5053083;28;21028;-71
2022/04/16 08:00:39;;;;;;;0.40;0.30;;;;;;;7.12;75.28;102963.38;5053605;28;20481;-73
2022/04/16 08:03:06;;;;;;;0.40;0.27;;;;;;;7.16;76.11;102959.22;5056509;28;20464;-74
2022/04/16 08:05:33;;;;;;;0.40;0.23;;;;;;;7.27;75.86;102963.91;5056011;28;20486;-76
2022/04/16 08:07:59;;;;;;;0.40;0.30;;;;;;;7.38;74.55;102978.53;5047692;28;20466;-74
2022/04/16 08:10:27;;;;;;;0.40;0.20;;;;;;;7.43;73.87;102973.28;5050461;28;20486;-74
2022/04/16 08:12:54;;;;;;;0.40;0.30;;;;;;;7.44;73.49;102974.97;5039852;28;20458;-74
2022/04/16 08:15:20;;;;;;;0.60;0.60;;;;;;;7.49;73.20;102977.81;5052282;28;20466;-74
2022/04/16 08:17:46;;;;;;;0.40;0.30;;;;;;;7.49;73.66;102977.81;5049623;28;20955;-75
2022/04/16 08:20:13;;;;;;;0.40;0.30;;;;;;;7.52;74.28;102975.50;5052730;28;20489;-74
2022/04/16 08:22:46;;;;;;;0.40;0.30;;;;;;;7.65;74.16;102979.13;5049641;28;20469;-74
2022/04/16 08:27:57;;;;;;;0.40;0.30;;;;;;;7.54;70.23;102975.28;5052257;28;20978;-75
2022/04/16 08:30:24;;;;;;;0.40;0.27;;;;;;;7.54;69.73;102980.69;5052367;28;20485;-72
2022/04/16 08:32:51;;;;;;;0.40;0.30;;;;;;;7.72;72.50;102975.31;5051219;28;21037;-71
2022/04/16 08:35:19;;;;;;;0.40;0.30;;;;;;;7.90;71.02;102979.09;5052529;28;20885;-74
2022/04/16 08:37:47;;;;;;;0.40;0.30;;;;;;;8.00;69.34;102973.97;5051315;28;20446;-76
2022/04/16 08:40:14;;;;;;;0.40;0.30;;;;;;;8.02;70.92;102980.00;5052439;28;20474;-71
2022/04/16 08:42:42;;;;;;;0.40;0.30;;;;;;;8.15;69.94;102979.84;5050171;28;20549;-74
2022/04/16 08:45:12;;;;;;;0.40;0.30;;;;;;;8.22;67.70;102979.75;5051599;28;20486;-74
2022/04/16 08:47:39;;;;;;;0.40;0.30;;;;;;;8.16;66.01;102973.38;5052245;28;20453;-73
2022/04/16 08:50:08;;;;;;;0.40;0.30;;;;;;;8.25;66.38;102974.72;5052622;28;20478;-73
2022/04/16 08:52:36;;;;;;;0.40;0.30;;;;;;;8.27;66.43;102974.50;5051908;28;20462;-70
2022/04/16 08:55:06;;;;;;;0.40;0.30;;;;;;;8.40;67.16;102976.25;5051658;28;20458;-73
2022/04/16 08:57:32;;;;;;;0.40;0.30;;;;;;;8.45;66.88;102979.91;5047345;28;20936;-72
2022/04/16 08:59:59;;;;;;;0.40;0.30;;;;;;;8.63;66.31;102987.16;5045096;28;20506;-72
2022/04/16 09:02:28;;;;;;;0.40;0.30;;;;;;;8.72;65.21;102971.44;5049619;28;20812;-72
2022/04/16 09:05:03;;;;;;;0.40;0.30;;;;;;;8.84;65.00;102967.72;5050873;28;20493;-73
2022/04/16 09:07:29;;;;;;;0.40;0.30;;;;;;;8.93;64.20;102970.09;5050912;28;20833;-72
2022/04/16 09:10:06;;;;;;;0.40;0.30;;;;;;;9.08;64.96;102962.41;5049978;28;20482;-74
2022/04/16 09:12:38;;;;;;;0.40;0.30;;;;;;;9.17;64.94;102969.13;5044173;28;20457;-71
2022/04/16 09:15:09;;;;;;;0.40;0.30;;;;;;;9.24;62.59;102971.69;5050532;28;20580;-77
2022/04/16 09:17:37;;;;;;;0.40;0.30;;;;;;;9.19;59.50;102967.00;5054776;28;20467;-77
2022/04/16 09:20:04;;;;;;;0.40;0.30;;;;;;;9.33;61.72;102976.53;5043195;28;21044;-76
2022/04/16 09:22:35;;;;;;;0.40;0.30;;;;;;;9.44;62.14;102971.38;5052944;28;20468;-76
2022/04/16 09:25:04;;;;;;;0.40;0.30;;;;;;;9.46;60.33;102969.25;5051826;28;20537;-74
2022/04/16 09:27:40;;;;;;;0.40;0.30;;;;;;;9.47;60.22;102968.19;5051426;28;20485;-72
2022/04/16 09:30:07;;;;;;;0.40;0.30;;;;;;;9.49;57.29;102968.81;5051514;28;20517;-72
2022/04/16 09:32:45;;;;;;;0.40;0.30;;;;;;;9.61;59.85;102969.63;5051047;28;20462;-71
2022/04/16 09:35:32;;;;;;;0.40;0.30;;;;;;;9.61;54.83;102961.50;5050104;28;20454;-72
2022/04/16 09:38:01;;;;;;;0.40;0.30;;;;;;;9.42;54.35;102962.66;5048903;28;20462;-73
2022/04/16 09:40:29;;;;;;;0.40;0.30;;;;;;;9.39;56.17;102963.16;5051349;28;20482;-73
2022/04/16 09:42:57;;;;;;;0.40;0.30;;;;;;;9.43;54.65;102970.56;5050267;28;20951;-76
2022/04/16 09:45:26;;;;;;;0.40;0.30;;;;;;;9.54;55.06;102960.78;5048711;28;20535;-76
2022/04/16 09:47:56;;;;;;;0.40;0.30;;;;;;;9.62;53.63;102967.75;5047457;28;20545;-77
2022/04/16 09:50:23;;;;;;;0.40;0.30;;;;;;;9.76;54.00;102967.25;5048886;28;20490;-77
2022/04/16 09:52:52;;;;;;;0.40;0.30;;;;;;;9.79;52.12;102969.50;5049419;28;20458;-75
2022/04/16 09:55:21;;;;;;;0.40;0.30;;;;;;;9.72;53.08;102978.78;5050805;28;21013;-75
2022/04/16 09:57:50;;;;;;;0.40;0.30;;;;;;;9.85;53.73;102968.53;5054383;28;20469;-76
2022/04/16 10:00:18;;;;;;;0.40;0.30;;;;;;;10.01;54.04;102971.59;5051924;28;20514;-76
2022/04/16 10:02:45;;;;;;;0.40;0.30;;;;;;;10.05;49.10;102967.34;5053094;28;20447;-76
2022/04/16 10:05:13;;;;;;;0.40;0.30;;;;;;;10.07;49.78;102968.75;5051636;28;21030;-75
2022/04/16 10:07:42;;;;;;;0.40;0.30;;;;;;;10.10;50.54;102981.00;5053596;28;20462;-74
2022/04/16 10:10:17;;;;;;;0.40;0.30;;;;;;;10.24;50.73;102971.56;5050505;28;20474;-73
2022/04/16 10:13:03;;;;;;;0.40;0.30;;;;;;;10.17;49.35;102976.25;5051927;28;20469;-75
2022/04/16 10:15:39;;;;;;;0.40;0.30;;;;;;;10.30;50.70;102970.59;5050455;28;20456;-77
2022/04/16 10:18:05;;;;;;;0.40;0.30;;;;;;;10.43;50.59;102974.09;5052168;28;20454;-75
2022/04/16 10:20:33;;;;;;;0.40;0.30;;;;;;;10.57;49.71;102975.44;5051834;28;20481;-76
2022/04/16 10:23:03;;;;;;;0.40;0.30;;;;;;;10.68;51.07;102976.47;5053502;28;20885;-77
2022/04/16 10:25:35;;;;;;;0.40;0.30;;;;;;;10.68;48.08;102973.78;5053419;28;20478;-77
2022/04/16 10:28:05;;;;;;;0.40;0.30;;;;;;;10.83;50.02;102974.03;5053111;28;21041;-77
2022/04/16 10:30:40;;;;;;;0.40;0.30;;;;;;;10.96;47.88;102964.78;5050261;28;20822;-77
2022/04/16 10:33:17;;;;;;;0.40;0.30;;;;;;;11.16;50.27;102962.44;5042061;28;20469;-77
2022/04/16 10:35:54;;;;;;;0.40;0.30;;;;;;;11.28;50.00;102959.59;5050892;28;20859;-76
2022/04/16 10:38:32;;;;;;;0.40;0.30;;;;;;;11.44;48.70;102952.53;5047238;28;20987;-76
2022/04/16 10:41:00;;;;;;;0.40;0.30;;;;;;;11.65;48.59;102961.81;5051012;28;21061;-77
2022/04/16 10:43:31;;;;;;;0.40;0.30;;;;;;;11.71;46.81;102963.53;5053898;28;20519;-77
2022/04/16 10:46:01;;;;;;;0.40;0.30;;;;;;;11.74;48.24;102963.03;5045638;28;20471;-76
2022/04/16 10:48:29;;;;;;;0.40;0.30;;;;;;;11.82;47.41;102959.88;5045565;28;20446;-75
2022/04/16 10:50:58;;;;;;;0.40;0.30;;;;;;;11.93;46.04;102958.97;5052299;28;20517;-75
2022/04/16 10:53:32;;;;;;;0.40;0.30;;;;;;;12.15;48.22;102958.97;5055304;28;20546;-75
2022/04/16 10:56:13;;;;;;;0.40;0.30;;;;;;;12.09;45.34;102957.28;5054686;28;20963;-75
2022/04/16 10:58:41;;;;;;;0.40;0.30;;;;;;;11.94;46.31;102957.88;5056345;28;20430;-75
2022/04/16 11:01:10;;;;;;;0.40;0.27;;;;;;;12.12;46.60;102954.03;5054495;28;20489;-73
2022/04/16 11:03:45;;;;;;;0.40;0.30;;;;;;;12.26;46.16;102960.75;5054197;28;20976;-75
2022/04/16 11:06:15;;;;;;;0.40;0.30;;;;;;;12.42;45.28;102964.47;5053728;28;20508;-74
2022/04/16 11:08:42;;;;;;;0.40;0.30;;;;;;;12.31;43.26;102952.66;5056303;28;20438;-73
2022/04/16 11:11:10;;;;;;;0.40;0.30;;;;;;;12.45;45.47;102953.09;5054987;28;20878;-73
2022/04/16 11:13:38;;;;;;;0.40;0.30;;;;;;;12.65;44.08;102949.75;5053976;28;20457;-74
2022/04/16 11:16:05;;;;;;;0.40;0.20;;;;;;;12.85;44.03;102949.94;5048600;28;20469;-74
2022/04/16 11:18:41;;;;;;;0.40;0.30;;;;;;;13.47;43.15;102951.28;5051730;28;20469;-74
2022/04/16 11:21:09;;;;;;;0.40;0.30;;;;;;;14.42;44.78;102956.63;5052350;28;20520;-75
2022/04/16 11:23:45;;;;;;;0.40;0.30;;;;;;;15.24;40.57;102957.59;5054668;28;20446;-75
2022/04/16 11:34:26;;;;;;;0.40;0.30;;;;;;;18.30;32.32;102973.88;5054520;28;20481;-74
2022/04/16 11:36:53;;;;;;;0.40;0.20;;;;;;;19.12;34.07;102974.34;5054332;28;20983;-76
2022/04/16 11:39:23;;;;;;;0.40;0.30;;;;;;;19.75;33.95;102972.94;5054256;28;20462;-76
2022/04/16 11:41:53;;;;;;;0.40;0.30;;;;;;;20.21;30.68;102977.50;5053708;28;20478;-76
2022/04/16 11:44:31;;;;;;;0.40;0.30;;;;;;;20.92;29.99;102981.41;5054520;28;20465;-74
2022/04/16 11:46:58;;;;;;;0.40;0.30;;;;;;;20.83;28.93;102974.22;5054743;28;20470;-77
2022/04/16 11:49:24;;;;;;;0.40;0.30;;;;;;;20.11;28.96;102975.78;5054114;28;20457;-76
2022/04/16 11:51:51;;;;;;;0.40;0.30;;;;;;;19.99;29.26;102991.19;5052084;28;20552;-75
2022/04/16 11:54:29;;;;;;;0.40;0.30;;;;;;;18.69;29.98;102975.56;5049755;28;20454;-76
2022/04/16 11:56:56;;;;;;;0.40;0.30;;;;;;;18.36;29.84;102976.25;5053786;28;20482;-76